createdAt,value
2019-05-26T00:02:21.249Z,10.60
2019-05-26T00:04:51.502Z,10.60
2019-05-26T00:07:30.305Z,10.50
2019-05-26T00:09:53.589Z,10.50
2019-05-26T00:12:23.767Z,10.50
2019-05-26T00:14:54.090Z,10.50
2019-05-26T00:17:24.179Z,10.50
2019-05-26T00:19:54.356Z,10.50
2019-05-26T00:22:24.627Z,10.40
2019-05-26T00:24:54.744Z,10.40
2019-05-26T00:27:25.045Z,10.40
2019-05-26T00:29:55.251Z,10.30
2019-05-26T00:32:25.401Z,10.20
2019-05-26T00:34:55.844Z,10.20
2019-05-26T00:37:26.031Z,10.20
2019-05-26T00:39:56.083Z,10.10
2019-05-26T00:42:26.347Z,10.00
2019-05-26T00:44:56.498Z,10.00
2019-05-26T00:47:26.658Z,10.20
2019-05-26T00:49:56.836Z,10.20
2019-05-26T00:52:27.131Z,10.00
2019-05-26T00:54:57.366Z,9.90
2019-05-26T00:57:27.590Z,9.90
2019-05-26T00:59:57.742Z,9.80
2019-05-26T01:02:27.838Z,9.90
2019-05-26T01:04:57.891Z,9.90
2019-05-26T01:07:28.195Z,10.00
2019-05-26T01:09:58.527Z,10.00
2019-05-26T01:12:28.583Z,10.00
2019-05-26T01:14:58.669Z,10.10
2019-05-26T01:17:28.865Z,9.90
2019-05-26T01:19:59.065Z,9.90
2019-05-26T01:22:29.280Z,9.80
2019-05-26T01:24:59.322Z,9.80
2019-05-26T01:27:29.462Z,9.70
2019-05-26T01:29:59.696Z,9.80
2019-05-26T01:32:29.851Z,9.70
2019-05-26T01:35:00.010Z,9.70
2019-05-26T01:37:30.267Z,9.70
2019-05-26T01:40:00.517Z,9.50
2019-05-26T01:42:30.565Z,9.50
2019-05-26T01:45:00.594Z,9.40
2019-05-26T01:47:30.717Z,9.40
2019-05-26T01:50:00.821Z,9.30
2019-05-26T01:52:30.981Z,9.30
2019-05-26T01:55:01.201Z,9.20
2019-05-26T01:57:31.377Z,9.20
2019-05-26T02:00:01.596Z,9.30
2019-05-26T02:02:32.382Z,9.30
2019-05-26T02:05:02.526Z,9.30
2019-05-26T02:07:34.443Z,9.40
2019-05-26T02:10:04.954Z,9.40
2019-05-26T02:12:36.310Z,9.40
2019-05-26T02:15:06.922Z,9.40
2019-05-26T02:17:36.981Z,9.50
2019-05-26T02:20:07.548Z,9.50
2019-05-26T02:22:37.673Z,9.40
2019-05-26T02:25:09.386Z,9.40
2019-05-26T02:27:39.583Z,9.40
2019-05-26T02:30:10.361Z,9.50
2019-05-26T02:32:41.546Z,9.50
2019-05-26T02:35:13.000Z,9.50
2019-05-26T02:37:43.204Z,9.60
2019-05-26T02:40:15.521Z,9.60
2019-05-26T02:42:45.632Z,9.60
2019-05-26T02:45:16.843Z,9.60
2019-05-26T02:47:47.218Z,9.60
2019-05-26T02:50:20.065Z,9.50
2019-05-26T02:52:50.263Z,9.50
2019-05-26T02:55:20.862Z,9.50
2019-05-26T02:57:50.998Z,9.50
2019-05-26T03:00:38.026Z,9.50
2019-05-26T03:03:09.208Z,9.60
2019-05-26T03:05:40.041Z,9.60
2019-05-26T03:08:10.451Z,9.60
2019-05-26T03:10:40.843Z,9.70
2019-05-26T03:13:13.986Z,9.60
2019-05-26T03:15:46.395Z,9.70
2019-05-26T03:18:17.646Z,9.80
2019-05-26T03:20:47.733Z,9.80
2019-05-26T03:23:18.151Z,9.90
2019-05-26T03:25:48.242Z,9.90
2019-05-26T03:28:18.448Z,10.00
2019-05-26T03:30:49.205Z,10.00
2019-05-26T03:33:19.351Z,10.10
2019-05-26T03:35:49.521Z,10.20
2019-05-26T03:38:19.731Z,10.30
2019-05-26T03:40:49.853Z,10.40
2019-05-26T03:43:20.301Z,10.50
2019-05-26T03:46:18.945Z,10.60
2019-05-26T03:48:49.653Z,10.60
2019-05-26T03:51:20.183Z,10.60
2019-05-26T03:53:50.406Z,10.70
2019-05-26T03:56:20.585Z,10.70
2019-05-26T03:58:50.841Z,10.80
2019-05-26T04:01:21.076Z,10.80
2019-05-26T04:03:52.534Z,10.90
2019-05-26T04:06:22.706Z,10.90
2019-05-26T04:08:52.810Z,10.90
2019-05-26T04:11:23.022Z,11.00
2019-05-26T04:13:53.109Z,11.10
2019-05-26T04:16:23.267Z,11.10
2019-05-26T04:18:53.440Z,11.20
2019-05-26T04:21:23.702Z,11.20
2019-05-26T04:23:54.114Z,11.30
2019-05-26T04:26:24.195Z,11.20
2019-05-26T04:28:54.426Z,11.30
2019-05-26T04:31:24.519Z,11.40
2019-05-26T04:33:54.682Z,11.50
2019-05-26T04:36:24.914Z,11.40
2019-05-26T04:38:55.039Z,11.50
2019-05-26T04:41:25.111Z,11.60
2019-05-26T04:43:56.263Z,11.80
2019-05-26T04:46:26.347Z,11.80
2019-05-26T04:48:56.679Z,11.80
2019-05-26T04:51:26.831Z,11.90
2019-05-26T04:53:56.949Z,12.00
2019-05-26T04:56:27.177Z,12.10
2019-05-26T04:58:57.389Z,12.20
2019-05-26T05:01:27.513Z,12.30
2019-05-26T05:03:57.593Z,12.40
2019-05-26T05:06:27.705Z,12.50
2019-05-26T05:08:57.985Z,12.50
2019-05-26T05:11:28.124Z,12.60
2019-05-26T05:13:58.307Z,12.70
2019-05-26T05:16:28.381Z,12.70
2019-05-26T05:18:58.458Z,12.80
2019-05-26T05:21:28.562Z,12.90
2019-05-26T05:23:58.661Z,13.00
2019-05-26T05:26:28.789Z,13.00
2019-05-26T05:28:58.961Z,13.00
2019-05-26T05:31:29.090Z,13.10
2019-05-26T05:33:59.164Z,13.10
2019-05-26T05:36:29.340Z,13.30
2019-05-26T05:38:59.517Z,13.40
2019-05-26T05:41:29.661Z,13.50
2019-05-26T05:43:59.782Z,13.50
2019-05-26T05:46:29.889Z,13.70
2019-05-26T05:49:00.334Z,13.80
2019-05-26T05:51:32.475Z,13.90
2019-05-26T05:54:02.714Z,13.90
2019-05-26T05:56:32.881Z,13.90
2019-05-26T05:59:03.000Z,13.90
2019-05-26T06:01:33.223Z,13.90
2019-05-26T06:04:03.413Z,14.00
2019-05-26T06:06:33.512Z,14.00
2019-05-26T06:09:04.836Z,14.10
2019-05-26T06:11:35.203Z,14.20
2019-05-26T06:14:05.490Z,14.40
2019-05-26T06:16:35.620Z,14.50
2019-05-26T06:19:05.711Z,14.60
2019-05-26T06:21:36.906Z,14.70
2019-05-26T06:24:07.030Z,14.90
2019-05-26T06:26:37.166Z,14.70
2019-05-26T06:29:07.371Z,14.70
2019-05-26T06:31:37.554Z,14.90
2019-05-26T06:34:07.662Z,15.00
2019-05-26T06:36:37.715Z,15.10
2019-05-26T06:39:08.530Z,15.20
2019-05-26T06:41:38.594Z,15.20
2019-05-26T06:44:08.976Z,15.20
2019-05-26T06:46:39.408Z,15.20
2019-05-26T06:49:09.650Z,15.00
2019-05-26T06:51:39.818Z,15.00
2019-05-26T06:54:09.963Z,15.00
2019-05-26T06:56:40.218Z,15.10
2019-05-26T06:59:10.568Z,15.20
2019-05-26T07:01:40.741Z,15.20
2019-05-26T07:04:10.880Z,15.30
2019-05-26T07:06:40.918Z,15.50
2019-05-26T07:09:11.120Z,15.60
2019-05-26T07:11:55.567Z,15.70
2019-05-26T07:14:13.193Z,15.50
2019-05-26T07:16:43.424Z,15.60
2019-05-26T07:19:13.624Z,15.80
2019-05-26T07:21:43.803Z,16.00
2019-05-26T07:24:14.042Z,15.90
2019-05-26T07:26:44.174Z,16.00
2019-05-26T07:29:14.286Z,16.00
2019-05-26T07:31:44.529Z,16.10
2019-05-26T07:34:14.709Z,16.20
2019-05-26T07:36:44.805Z,16.40
2019-05-26T07:39:14.973Z,16.80
2019-05-26T07:41:45.099Z,16.80
2019-05-26T07:44:15.255Z,16.50
2019-05-26T07:46:45.502Z,16.60
2019-05-26T07:49:15.590Z,16.60
2019-05-26T07:51:45.899Z,17.20
2019-05-26T07:54:25.180Z,17.30
2019-05-26T07:56:47.966Z,17.10
2019-05-26T07:59:18.146Z,17.10
2019-05-26T08:01:48.849Z,17.30
2019-05-26T08:04:18.958Z,17.70
2019-05-26T08:07:00.842Z,17.30
2019-05-26T08:09:30.929Z,17.10
2019-05-26T08:12:01.578Z,16.80
2019-05-26T08:14:31.824Z,16.80
2019-05-26T08:17:02.007Z,17.20
2019-05-26T08:19:32.184Z,17.70
2019-05-26T08:22:02.421Z,17.90
2019-05-26T08:24:32.663Z,17.70
2019-05-26T08:27:02.969Z,18.00
2019-05-26T08:29:33.326Z,17.90
2019-05-26T08:32:03.573Z,17.80
2019-05-26T08:34:33.665Z,17.90
2019-05-26T08:37:03.706Z,17.90
2019-05-26T08:39:33.795Z,17.90
2019-05-26T08:42:03.996Z,18.20
2019-05-26T08:44:34.132Z,18.20
2019-05-26T08:47:04.405Z,18.10
2019-05-26T08:49:34.511Z,17.70
2019-05-26T08:52:04.734Z,17.60
2019-05-26T08:54:34.909Z,18.10
2019-05-26T08:57:05.111Z,18.40
2019-05-26T08:59:35.338Z,18.70
2019-05-26T09:02:05.458Z,18.50
2019-05-26T09:04:35.616Z,18.50
2019-05-26T09:07:06.010Z,18.10
2019-05-26T09:09:36.261Z,18.70
2019-05-26T09:12:06.411Z,19.20
2019-05-26T09:14:36.606Z,19.40
2019-05-26T09:17:06.730Z,19.10
2019-05-26T09:19:37.096Z,18.80
2019-05-26T09:22:07.347Z,19.30
2019-05-26T09:24:37.595Z,19.20
2019-05-26T09:27:07.835Z,18.80
2019-05-26T09:29:37.947Z,18.70
2019-05-26T09:32:08.036Z,18.60
2019-05-26T09:34:38.188Z,19.10
2019-05-26T09:37:08.314Z,19.80
2019-05-26T09:39:38.452Z,19.70
2019-05-26T09:42:08.582Z,19.30
2019-05-26T09:44:38.710Z,19.90
2019-05-26T09:47:08.974Z,19.90
2019-05-26T09:49:39.210Z,20.20
2019-05-26T09:52:09.414Z,19.80
2019-05-26T09:54:39.592Z,20.00
2019-05-26T09:57:09.710Z,20.10
2019-05-26T09:59:39.999Z,20.20
2019-05-26T10:02:10.070Z,19.50
2019-05-26T10:04:40.385Z,19.60
2019-05-26T10:07:14.931Z,19.80
2019-05-26T10:09:42.424Z,20.10
2019-05-26T10:12:13.074Z,20.20
2019-05-26T10:14:43.391Z,19.50
2019-05-26T10:17:13.533Z,20.20
2019-05-26T10:19:43.758Z,20.60
2019-05-26T10:22:13.856Z,20.90
2019-05-26T10:24:44.024Z,21.30
2019-05-26T10:27:14.086Z,21.20
2019-05-26T10:29:44.202Z,21.40
2019-05-26T10:32:37.402Z,22.00
2019-05-26T10:35:06.561Z,22.40
2019-05-26T10:37:36.816Z,21.70
2019-05-26T10:40:08.104Z,20.90
2019-05-26T10:42:38.225Z,21.20
2019-05-26T10:45:09.465Z,21.10
2019-05-26T10:47:39.739Z,20.40
2019-05-26T10:50:10.394Z,20.20
2019-05-26T10:52:40.675Z,20.60
2019-05-26T10:55:10.986Z,21.00
2019-05-26T10:57:41.163Z,21.40
2019-05-26T11:00:11.647Z,21.50
2019-05-26T11:02:41.955Z,21.50
2019-05-26T11:05:12.766Z,21.10
2019-05-26T11:07:42.898Z,21.00
2019-05-26T11:10:13.729Z,20.90
2019-05-26T11:12:44.178Z,21.10
2019-05-26T11:15:15.239Z,21.60
2019-05-26T11:17:45.403Z,21.50
2019-05-26T11:20:15.920Z,21.20
2019-05-26T11:22:46.442Z,21.10
2019-05-26T11:25:17.498Z,21.90
2019-05-26T11:27:47.586Z,21.70
2019-05-26T11:30:18.322Z,21.70
2019-05-26T11:32:48.535Z,21.90
2019-05-26T11:35:18.763Z,21.20
2019-05-26T11:37:48.948Z,21.10
2019-05-26T11:40:19.067Z,21.00
2019-05-26T11:42:49.235Z,21.10
2019-05-26T11:45:20.271Z,21.60
2019-05-26T11:47:50.455Z,21.20
2019-05-26T11:50:22.126Z,21.00
2019-05-26T11:52:52.251Z,20.80
2019-05-26T11:55:22.459Z,20.50
2019-05-26T11:57:52.802Z,20.30
2019-05-26T12:00:24.122Z,19.80
2019-05-26T12:02:54.334Z,19.70
2019-05-26T12:05:24.522Z,19.80
2019-05-26T12:07:54.668Z,19.80
2019-05-26T12:10:24.941Z,20.10
2019-05-26T12:12:55.201Z,20.30
2019-05-26T12:15:25.472Z,21.20
2019-05-26T12:17:55.989Z,21.60
2019-05-26T12:20:26.186Z,22.00
2019-05-26T12:22:56.523Z,21.80
2019-05-26T12:25:26.733Z,21.00
2019-05-26T12:27:56.961Z,20.70
2019-05-26T12:30:27.119Z,21.30
2019-05-26T12:32:57.398Z,21.60
2019-05-26T12:35:43.648Z,21.40
2019-05-26T12:38:14.671Z,21.50
2019-05-26T12:40:44.878Z,21.50
2019-05-26T12:43:15.096Z,21.50
2019-05-26T12:45:45.325Z,21.90
2019-05-26T12:48:15.653Z,22.30
2019-05-26T12:50:45.824Z,22.60
2019-05-26T12:53:16.034Z,22.70
2019-05-26T12:55:46.220Z,22.50
2019-05-26T12:58:16.667Z,22.50
2019-05-26T13:00:49.617Z,22.60
2019-05-26T13:03:18.642Z,22.80
2019-05-26T13:05:49.014Z,22.70
2019-05-26T13:08:19.233Z,22.60
2019-05-26T13:10:49.879Z,22.40
2019-05-26T13:13:20.019Z,22.70
2019-05-26T13:15:50.086Z,22.10
2019-05-26T13:18:20.210Z,21.90
2019-05-26T13:20:50.276Z,22.40
2019-05-26T13:23:20.429Z,22.40
2019-05-26T13:25:50.615Z,22.50
2019-05-26T13:28:20.859Z,22.30
2019-05-26T13:30:51.011Z,22.50
2019-05-26T13:33:21.142Z,22.50
2019-05-26T13:35:51.214Z,22.50
2019-05-26T13:38:21.390Z,22.40
2019-05-26T13:40:51.562Z,22.50
2019-05-26T13:43:21.675Z,22.10
2019-05-26T13:45:51.825Z,21.70
2019-05-26T13:48:22.033Z,22.10
2019-05-26T13:50:53.235Z,22.30
2019-05-26T13:53:23.538Z,22.50
2019-05-26T13:55:53.887Z,22.80
2019-05-26T13:58:24.126Z,22.80
2019-05-26T14:00:54.151Z,22.90
2019-05-26T14:03:24.520Z,22.80
2019-05-26T14:05:55.706Z,22.80
2019-05-26T14:08:29.078Z,22.80
2019-05-26T14:11:00.022Z,22.40
2019-05-26T14:13:30.162Z,22.30
2019-05-26T14:16:01.742Z,22.70
2019-05-26T14:18:33.374Z,22.60
2019-05-26T14:21:03.562Z,22.30
2019-05-26T14:23:34.058Z,22.50
2019-05-26T14:26:04.362Z,22.50
2019-05-26T14:28:34.501Z,22.60
2019-05-26T14:31:04.907Z,22.60
2019-05-26T14:33:35.147Z,22.90
2019-05-26T14:36:05.305Z,22.90
2019-05-26T14:38:43.256Z,23.00
2019-05-26T14:41:07.503Z,22.70
2019-05-26T14:43:37.735Z,22.80
2019-05-26T14:46:07.838Z,22.60
2019-05-26T14:48:38.115Z,22.60
2019-05-26T14:51:08.179Z,22.50
2019-05-26T14:53:38.246Z,22.20
2019-05-26T14:56:08.369Z,22.10
2019-05-26T14:58:38.530Z,22.00
2019-05-26T15:01:08.635Z,22.20
2019-05-26T15:03:38.985Z,22.40
2019-05-26T15:06:09.142Z,22.20
2019-05-26T15:08:39.326Z,22.10
2019-05-26T15:11:09.486Z,21.70
2019-05-26T15:13:39.694Z,21.80
2019-05-26T15:16:10.650Z,21.40
2019-05-26T15:18:41.037Z,21.70
2019-05-26T15:21:11.139Z,21.60
2019-05-26T15:23:41.642Z,21.30
2019-05-26T15:26:11.683Z,21.40
2019-05-26T15:28:41.802Z,21.50
2019-05-26T15:31:12.106Z,21.80
2019-05-26T15:33:43.299Z,21.90
2019-05-26T15:36:16.054Z,22.30
2019-05-26T15:38:45.455Z,22.30
2019-05-26T15:41:15.651Z,22.10
2019-05-26T15:43:45.825Z,21.70
2019-05-26T15:46:24.705Z,21.60
2019-05-26T15:48:47.774Z,21.20
2019-05-26T15:51:18.002Z,21.10
2019-05-26T15:53:48.402Z,21.00
2019-05-26T15:56:18.554Z,21.00
2019-05-26T15:58:48.715Z,21.00
2019-05-26T16:01:18.940Z,21.00
2019-05-26T16:03:49.221Z,20.90
2019-05-26T16:06:19.458Z,21.00
2019-05-26T16:08:49.784Z,20.80
2019-05-26T16:11:20.007Z,21.00
2019-05-26T16:13:50.238Z,21.00
2019-05-26T16:16:20.391Z,20.90
2019-05-26T16:18:50.840Z,20.90
2019-05-26T16:21:28.166Z,20.90
2019-05-26T16:23:53.017Z,20.70
2019-05-26T16:26:23.182Z,20.90
2019-05-26T16:28:53.403Z,20.70
2019-05-26T16:31:23.545Z,20.90
2019-05-26T16:33:53.643Z,20.70
2019-05-26T16:36:23.982Z,20.60
2019-05-26T16:38:54.250Z,20.50
2019-05-26T16:41:24.467Z,20.60
2019-05-26T16:43:54.666Z,20.50
2019-05-26T16:46:24.970Z,20.50
2019-05-26T16:48:55.239Z,20.60
2019-05-26T16:51:25.404Z,20.50
2019-05-26T16:53:55.566Z,20.40
2019-05-26T16:56:25.977Z,20.40
2019-05-26T16:58:56.388Z,20.40
2019-05-26T17:01:27.625Z,20.30
2019-05-26T17:03:57.806Z,20.20
2019-05-26T17:06:27.983Z,20.20
2019-05-26T17:08:58.129Z,20.20
2019-05-26T17:11:28.266Z,20.20
2019-05-26T17:13:58.525Z,20.30
2019-05-26T17:16:28.632Z,20.30
2019-05-26T17:18:58.714Z,20.20
2019-05-26T17:21:28.876Z,20.10
2019-05-26T17:23:59.094Z,20.10
2019-05-26T17:26:29.484Z,20.10
2019-05-26T17:28:59.773Z,20.00
2019-05-26T17:31:29.946Z,19.90
2019-05-26T17:34:00.223Z,19.90
2019-05-26T17:36:30.787Z,19.80
2019-05-26T17:39:01.057Z,19.80
2019-05-26T17:41:33.003Z,19.70
2019-05-26T17:44:03.307Z,19.70
2019-05-26T17:46:33.584Z,19.60
2019-05-26T17:49:03.819Z,19.60
2019-05-26T17:51:34.215Z,19.50
2019-05-26T17:54:04.519Z,19.40
2019-05-26T17:56:41.575Z,19.30
2019-05-26T17:59:12.418Z,19.20
2019-05-26T18:01:42.559Z,19.10
2019-05-26T18:04:13.258Z,19.10
2019-05-26T18:06:43.574Z,19.00
2019-05-26T18:09:13.728Z,18.90
2019-05-26T18:11:44.193Z,18.80
2019-05-26T18:14:14.500Z,18.70
2019-05-26T18:16:44.745Z,18.60
2019-05-26T18:19:15.050Z,18.50
2019-05-26T18:21:45.405Z,18.40
2019-05-26T18:24:15.505Z,18.40
2019-05-26T18:26:45.651Z,18.30
2019-05-26T18:29:15.953Z,18.30
2019-05-26T18:31:46.113Z,18.20
2019-05-26T18:34:16.270Z,18.10
2019-05-26T18:36:46.506Z,18.00
2019-05-26T18:39:16.659Z,18.00
2019-05-26T18:41:46.794Z,17.90
2019-05-26T18:44:16.860Z,17.80
2019-05-26T18:46:46.932Z,17.70
2019-05-26T18:49:17.269Z,17.60
2019-05-26T18:51:47.499Z,17.60
2019-05-26T18:54:20.492Z,17.50
2019-05-26T18:56:51.846Z,17.50
2019-05-26T18:59:22.042Z,17.40
2019-05-26T19:01:52.195Z,17.40
2019-05-26T19:04:22.259Z,17.40
2019-05-26T19:06:52.368Z,17.30
2019-05-26T19:09:23.656Z,17.20
2019-05-26T19:11:53.882Z,17.20
2019-05-26T19:14:24.063Z,17.10
2019-05-26T19:16:54.227Z,17.00
2019-05-26T19:19:24.475Z,17.00
2019-05-26T19:21:54.698Z,16.90
2019-05-26T19:24:24.734Z,16.90
2019-05-26T19:26:54.911Z,16.80
2019-05-26T19:29:25.146Z,16.80
2019-05-26T19:31:55.351Z,16.80
2019-05-26T19:34:25.446Z,16.80
2019-05-26T19:36:55.606Z,16.70
2019-05-26T19:39:25.941Z,16.70
2019-05-26T19:41:56.184Z,16.50
2019-05-26T19:44:26.319Z,16.40
2019-05-26T19:46:57.703Z,16.30
2019-05-26T19:49:27.923Z,16.30
2019-05-26T19:51:58.018Z,16.30
2019-05-26T19:54:28.125Z,16.30
2019-05-26T19:56:58.175Z,16.30
2019-05-26T19:59:28.379Z,16.20
2019-05-26T20:01:58.453Z,16.30
2019-05-26T20:04:28.824Z,16.20
2019-05-26T20:06:58.974Z,16.00
2019-05-26T20:09:29.154Z,16.00
2019-05-26T20:11:59.270Z,15.90
2019-05-26T20:14:29.601Z,15.80
2019-05-26T20:16:59.743Z,15.80
2019-05-26T20:19:29.994Z,15.70
2019-05-26T20:22:00.201Z,15.70
2019-05-26T20:24:30.393Z,15.70
2019-05-26T20:27:00.658Z,15.60
2019-05-26T20:29:30.860Z,15.50
2019-05-26T20:32:02.147Z,15.50
2019-05-26T20:34:32.410Z,15.50
2019-05-26T20:37:02.748Z,15.50
2019-05-26T20:39:32.929Z,15.50
2019-05-26T20:42:03.494Z,15.40
2019-05-26T20:44:33.673Z,15.40
2019-05-26T20:47:04.295Z,15.40
2019-05-26T20:49:45.013Z,15.30
2019-05-26T20:52:06.521Z,15.30
2019-05-26T20:54:36.675Z,15.30
2019-05-26T20:57:07.010Z,15.20
2019-05-26T20:59:37.206Z,15.30
2019-05-26T21:02:07.527Z,15.20
2019-05-26T21:04:37.714Z,15.30
2019-05-26T21:07:08.102Z,15.30
2019-05-26T21:09:38.286Z,15.30
2019-05-26T21:12:08.600Z,15.30
2019-05-26T21:14:38.638Z,15.30
2019-05-26T21:17:08.816Z,15.30
2019-05-26T21:19:38.963Z,15.30
2019-05-26T21:22:09.218Z,15.30
2019-05-26T21:24:39.383Z,15.30
2019-05-26T21:27:09.630Z,15.30
2019-05-26T21:29:39.961Z,15.30
2019-05-26T21:32:10.143Z,15.20
2019-05-26T21:34:40.407Z,15.20
2019-05-26T21:37:10.545Z,15.20
2019-05-26T21:39:40.650Z,15.20
2019-05-26T21:42:10.769Z,15.20
2019-05-26T21:44:40.983Z,15.20
2019-05-26T21:47:11.186Z,15.10
2019-05-26T21:49:41.452Z,15.10
2019-05-26T21:52:11.640Z,15.00
2019-05-26T21:54:41.878Z,15.00
2019-05-26T21:57:12.063Z,15.00
2019-05-26T21:59:42.206Z,14.90
2019-05-26T22:02:12.327Z,14.90
2019-05-26T22:04:42.578Z,14.90
2019-05-26T22:07:12.826Z,14.90
2019-05-26T22:09:43.063Z,14.90
2019-05-26T22:12:13.338Z,14.90
2019-05-26T22:14:43.696Z,14.90
2019-05-26T22:17:13.942Z,14.90
2019-05-26T22:19:44.127Z,14.90
2019-05-26T22:22:14.197Z,14.90
2019-05-26T22:24:44.369Z,14.90
2019-05-26T22:27:14.527Z,14.90
2019-05-26T22:29:44.767Z,14.90
2019-05-26T22:32:15.082Z,15.00
2019-05-26T22:34:45.268Z,15.00
2019-05-26T22:37:16.485Z,15.00
2019-05-26T22:39:47.091Z,15.00
2019-05-26T22:42:17.429Z,15.00
2019-05-26T22:44:47.801Z,15.00
2019-05-26T22:47:19.095Z,15.00
2019-05-26T22:49:49.414Z,15.00
2019-05-26T22:52:22.005Z,15.00
2019-05-26T22:54:54.965Z,15.00
2019-05-26T22:57:25.036Z,15.00
2019-05-26T22:59:55.078Z,15.00
2019-05-26T23:02:25.155Z,15.00
2019-05-26T23:04:55.426Z,15.00
2019-05-26T23:07:25.630Z,15.10
2019-05-26T23:09:55.719Z,15.00
2019-05-26T23:12:25.784Z,15.00
2019-05-26T23:14:55.853Z,15.00
2019-05-26T23:17:26.013Z,15.10
2019-05-26T23:19:56.189Z,15.10
2019-05-26T23:22:26.305Z,15.10
2019-05-26T23:24:56.406Z,15.20
2019-05-26T23:27:26.497Z,15.20
2019-05-26T23:29:56.659Z,15.20
2019-05-26T23:32:26.840Z,15.20
2019-05-26T23:34:57.056Z,15.20
2019-05-26T23:37:27.163Z,15.20
2019-05-26T23:39:57.242Z,15.20
2019-05-26T23:42:27.346Z,15.20
2019-05-26T23:44:57.563Z,15.20
2019-05-26T23:47:27.708Z,15.20
2019-05-26T23:49:57.869Z,15.20
2019-05-26T23:52:27.961Z,15.20
2019-05-26T23:54:58.159Z,15.20
2019-05-26T23:57:28.315Z,15.20
2019-05-26T23:59:58.491Z,15.30
